Decoded Metar for MMMD (MERIDA in MEXICO) (IATA:MID) | Meteo·Mobile Aviation Weather
aviador You're here:

MMMD Decoded Metar

MERIDA in MEXICO
Report Time2018-09-22 18:46:00
UTC Time2018-09-22 19:20:18
Flight Rules mvfr MVFR
Wind140° at 08 kt
W.Decomp.*RWY 10: 6.3 kt HW 4.9 kt RCW
RWY 18: 5.9 kt HW 5.4 kt LCW
W.Rank140° ranks 9
Current wind is below 140° avg. (9.2)
Visibility9999 m
Phenomena:N/A
Clouds:Broken TCU 025 Hf
Broken 300 Hf
Expected CloudBase > 4,800 ft AGL from Temp-Dew spread
Ceiling2,500 ft
Temp34°C (ISA +19)
Dew Point22°C (49% RH)
Heat Index38.1°C
QNH1013 hPa
Density Alt2,549 ft
Elevation33 ft
Report Wrong Elevation
Raw Report
METAR MMMD 221846Z 14008KT 7SM BKN025TCU BKN300 34/22 A2990 RMK 8/208=

Extra information for MMMD:More info

Metar Taf Metar & Taf Last 4 Metars F.Rules Stats Wind Profile Meteogram Temp Stats Airport Information Weather charts Add Link Nearby VenuesMetar ALERT Operation Metar Decoded Social comments